createdAt,value
2017-12-20T00:00:40.442Z,13.10
2017-12-20T00:03:08.638Z,11.87
2017-12-20T00:05:36.112Z,14.70
2017-12-20T00:08:03.549Z,12.17
2017-12-20T00:10:30.986Z,12.13
2017-12-20T00:12:59.206Z,13.00
2017-12-20T00:15:26.647Z,13.07
2017-12-20T00:17:54.094Z,14.40
2017-12-20T00:20:21.535Z,12.23
2017-12-20T00:22:49.744Z,12.80
2017-12-20T00:25:17.186Z,14.37
2017-12-20T00:27:44.670Z,11.37
2017-12-20T00:30:12.879Z,11.77
2017-12-20T00:32:41.074Z,8.83
2017-12-20T00:35:08.522Z,13.33
2017-12-20T00:37:36.727Z,12.10
2017-12-20T00:40:04.162Z,10.70
2017-12-20T00:42:31.599Z,11.60
2017-12-20T00:44:59.826Z,10.80
2017-12-20T00:47:27.258Z,9.43
2017-12-20T00:49:54.694Z,11.40
2017-12-20T00:52:22.907Z,10.97
2017-12-20T00:54:50.343Z,9.80
2017-12-20T00:57:17.787Z,11.17
2017-12-20T00:59:45.998Z,11.13
2017-12-20T01:02:13.450Z,11.37
2017-12-20T01:04:40.887Z,14.70
2017-12-20T01:07:08.346Z,11.43
2017-12-20T01:09:35.791Z,11.70
2017-12-20T01:12:03.231Z,11.53
2017-12-20T01:14:31.443Z,11.17
2017-12-20T01:16:58.881Z,10.97
2017-12-20T01:19:26.323Z,11.67
2017-12-20T01:21:54.532Z,11.60
2017-12-20T01:24:21.984Z,11.10
2017-12-20T01:26:49.419Z,11.13
2017-12-20T01:29:16.867Z,12.30
2017-12-20T01:31:45.072Z,12.00
2017-12-20T01:34:12.546Z,9.77
2017-12-20T01:36:39.987Z,10.70
2017-12-20T01:39:07.420Z,10.80
2017-12-20T01:41:34.854Z,9.73
2017-12-20T01:44:03.070Z,9.20
2017-12-20T01:46:30.503Z,7.60
2017-12-20T01:48:57.943Z,9.37
2017-12-20T01:51:26.151Z,8.63
2017-12-20T01:53:53.575Z,7.83
2017-12-20T01:56:21.778Z,9.60
2017-12-20T01:58:49.215Z,8.17
2017-12-20T02:01:17.441Z,9.23
2017-12-20T02:03:44.878Z,10.67
2017-12-20T02:06:12.317Z,9.60
2017-12-20T02:08:39.759Z,9.53
2017-12-20T02:11:07.199Z,11.20
2017-12-20T02:13:35.418Z,13.50
2017-12-20T02:16:02.853Z,9.87
2017-12-20T02:18:30.334Z,10.40
2017-12-20T02:20:57.758Z,9.50
2017-12-20T02:23:25.956Z,9.97
2017-12-20T02:25:53.415Z,11.90
2017-12-20T02:28:20.854Z,12.27
2017-12-20T02:30:48.315Z,10.10
2017-12-20T02:33:27.621Z,10.73
2017-12-20T02:35:55.840Z,9.87
2017-12-20T02:38:35.115Z,10.97
2017-12-20T02:41:05.304Z,12.20
2017-12-20T02:43:32.727Z,9.57
2017-12-20T02:46:00.171Z,11.50
2017-12-20T02:48:28.383Z,10.93
2017-12-20T02:50:55.844Z,10.30
2017-12-20T02:53:24.188Z,11.57
2017-12-20T02:55:51.623Z,12.30
2017-12-20T02:58:19.062Z,12.53
2017-12-20T03:00:46.497Z,9.97
2017-12-20T03:03:13.948Z,10.40
2017-12-20T03:05:41.375Z,9.43
2017-12-20T03:08:08.811Z,9.43
2017-12-20T03:10:37.007Z,8.97
2017-12-20T03:13:04.449Z,9.37
2017-12-20T03:15:32.642Z,11.17
2017-12-20T03:18:00.127Z,10.00
2017-12-20T03:20:27.568Z,9.57
2017-12-20T03:22:55.000Z,9.17
2017-12-20T03:25:22.436Z,9.87
2017-12-20T03:27:50.638Z,10.63
2017-12-20T03:30:18.084Z,10.10
2017-12-20T03:32:45.515Z,9.93
2017-12-20T03:35:12.975Z,10.70
2017-12-20T03:37:40.415Z,9.90
2017-12-20T03:40:07.859Z,11.23
2017-12-20T03:42:35.295Z,9.53
2017-12-20T03:45:02.760Z,10.63
2017-12-20T03:47:30.199Z,10.53
2017-12-20T03:49:57.634Z,10.50
2017-12-20T03:52:25.839Z,9.20
2017-12-20T03:54:53.270Z,11.40
2017-12-20T03:57:20.718Z,11.90
2017-12-20T03:59:48.915Z,10.87
2017-12-20T04:02:16.359Z,11.30
2017-12-20T04:04:43.795Z,11.53
2017-12-20T04:07:12.006Z,10.90
2017-12-20T04:09:39.456Z,13.40
2017-12-20T04:12:06.935Z,10.33
2017-12-20T04:14:34.367Z,10.97
2017-12-20T04:17:01.807Z,11.40
2017-12-20T04:19:29.253Z,12.93
2017-12-20T04:21:57.463Z,10.20
2017-12-20T04:24:24.903Z,10.17
2017-12-20T04:26:52.339Z,9.20
2017-12-20T04:29:20.546Z,9.33
2017-12-20T04:31:47.991Z,8.50
2017-12-20T04:34:15.457Z,9.20
2017-12-20T04:36:42.882Z,9.40
2017-12-20T04:39:11.083Z,10.40
2017-12-20T04:41:38.528Z,10.10
2017-12-20T04:44:05.959Z,9.50
2017-12-20T04:46:34.170Z,10.00
2017-12-20T04:49:01.607Z,10.30
2017-12-20T04:51:29.821Z,10.77
2017-12-20T04:53:57.243Z,9.23
2017-12-20T04:56:24.711Z,10.40
2017-12-20T04:58:52.322Z,11.00
2017-12-20T05:01:19.750Z,9.80
2017-12-20T05:03:47.203Z,11.00
2017-12-20T05:06:14.634Z,10.67
2017-12-20T05:08:42.074Z,10.83
2017-12-20T05:11:10.281Z,9.43
2017-12-20T05:13:37.722Z,9.73
2017-12-20T05:16:05.163Z,10.30
2017-12-20T05:18:33.461Z,10.80
2017-12-20T05:21:00.959Z,10.07
2017-12-20T05:23:29.165Z,12.40
2017-12-20T05:25:58.335Z,9.67
2017-12-20T05:28:25.830Z,11.03
2017-12-20T05:30:54.081Z,8.83
2017-12-20T05:33:21.455Z,9.27
2017-12-20T05:35:49.659Z,9.47
2017-12-20T05:38:17.103Z,11.40
2017-12-20T05:40:44.570Z,11.17
2017-12-20T05:43:11.992Z,10.20
2017-12-20T05:45:40.230Z,10.53
2017-12-20T05:48:07.671Z,11.80
2017-12-20T05:50:35.885Z,12.87
2017-12-20T05:53:03.326Z,12.60
2017-12-20T05:55:30.775Z,12.50
2017-12-20T05:57:58.242Z,12.87
2017-12-20T06:00:25.778Z,13.90
2017-12-20T06:02:53.207Z,9.67
2017-12-20T06:05:20.639Z,9.83
2017-12-20T06:07:48.888Z,10.77
2017-12-20T06:10:16.326Z,10.27
2017-12-20T06:12:43.763Z,10.50
2017-12-20T06:15:11.214Z,10.07
2017-12-20T06:17:38.650Z,9.53
2017-12-20T06:20:06.099Z,11.77
2017-12-20T06:22:34.300Z,10.50
2017-12-20T06:25:01.784Z,11.00
2017-12-20T06:27:29.214Z,9.70
2017-12-20T06:29:56.652Z,10.67
2017-12-20T06:32:24.100Z,9.57
2017-12-20T06:34:52.303Z,7.80
2017-12-20T06:37:19.738Z,9.07
2017-12-20T06:39:47.175Z,9.40
2017-12-20T06:42:15.415Z,8.80
2017-12-20T06:44:42.851Z,9.50
2017-12-20T06:47:10.281Z,8.83
2017-12-20T06:49:37.734Z,9.10
2017-12-20T06:52:05.939Z,11.27
2017-12-20T06:54:33.391Z,11.00
2017-12-20T06:57:00.822Z,10.37
2017-12-20T06:59:28.262Z,10.13
2017-12-20T07:01:56.474Z,9.70
2017-12-20T07:04:23.902Z,9.37
2017-12-20T07:06:52.113Z,11.53
2017-12-20T07:09:19.561Z,10.40
2017-12-20T07:11:46.991Z,8.93
2017-12-20T07:14:14.431Z,10.03
2017-12-20T07:16:42.639Z,9.77
2017-12-20T07:19:10.091Z,10.17
2017-12-20T07:21:37.526Z,8.43
2017-12-20T07:24:05.737Z,8.43
2017-12-20T07:26:33.170Z,9.90
2017-12-20T07:29:00.608Z,8.33
2017-12-20T07:31:28.847Z,10.40
2017-12-20T07:33:57.051Z,8.23
2017-12-20T07:36:25.259Z,9.10
2017-12-20T07:38:52.703Z,9.30
2017-12-20T07:41:20.153Z,10.10
2017-12-20T07:43:48.348Z,9.27
2017-12-20T07:46:15.791Z,7.93
2017-12-20T07:48:43.230Z,9.37
2017-12-20T07:51:11.439Z,10.50
2017-12-20T07:53:38.924Z,12.60
2017-12-20T07:56:06.351Z,7.60
2017-12-20T07:58:33.787Z,8.70
2017-12-20T08:01:01.236Z,8.97
2017-12-20T08:03:29.442Z,8.80
2017-12-20T08:05:56.892Z,10.50
2017-12-20T08:08:24.323Z,8.90
2017-12-20T08:10:52.533Z,8.57
2017-12-20T08:13:19.972Z,8.67
2017-12-20T08:15:47.455Z,8.60
2017-12-20T08:18:15.663Z,7.80
2017-12-20T08:20:43.101Z,9.97
2017-12-20T08:23:10.539Z,8.73
2017-12-20T08:25:37.982Z,7.70
2017-12-20T08:28:05.419Z,7.77
2017-12-20T08:30:32.855Z,7.73
2017-12-20T08:33:01.071Z,10.20
2017-12-20T08:35:28.524Z,8.83
2017-12-20T08:37:55.981Z,10.17
2017-12-20T08:40:23.420Z,8.00
2017-12-20T08:42:50.863Z,8.03
2017-12-20T08:45:19.064Z,8.53
2017-12-20T08:47:46.505Z,7.90
2017-12-20T08:50:14.703Z,8.70
2017-12-20T08:52:42.147Z,8.33
2017-12-20T08:55:09.582Z,9.03
2017-12-20T08:57:37.788Z,10.27
2017-12-20T09:00:05.236Z,9.63
2017-12-20T09:02:32.680Z,8.33
2017-12-20T09:05:00.117Z,8.80
2017-12-20T09:07:28.314Z,9.57
2017-12-20T09:09:55.754Z,9.00
2017-12-20T09:12:23.964Z,8.67
2017-12-20T09:14:51.410Z,7.07
2017-12-20T09:17:18.847Z,8.30
2017-12-20T09:19:47.054Z,6.67
2017-12-20T09:22:14.494Z,10.27
2017-12-20T09:24:41.978Z,7.20
2017-12-20T09:27:09.407Z,6.50
2017-12-20T09:29:36.852Z,7.67
2017-12-20T09:32:04.295Z,7.93
2017-12-20T09:34:32.496Z,7.70
2017-12-20T09:36:59.939Z,7.00
2017-12-20T09:39:27.388Z,6.90
2017-12-20T09:41:55.600Z,8.10
2017-12-20T09:44:23.035Z,9.10
2017-12-20T09:46:50.502Z,8.00
2017-12-20T09:49:17.925Z,7.27
2017-12-20T09:51:46.184Z,5.90
2017-12-20T09:54:13.631Z,7.53
2017-12-20T09:56:41.055Z,9.90
2017-12-20T09:59:08.496Z,10.63
2017-12-20T10:01:35.935Z,6.70
2017-12-20T10:04:03.377Z,6.13
2017-12-20T10:06:31.585Z,7.63
2017-12-20T10:08:59.043Z,6.83
2017-12-20T10:11:26.472Z,7.73
2017-12-20T10:13:54.675Z,6.53
2017-12-20T10:16:22.111Z,6.20
2017-12-20T10:18:49.559Z,8.67
2017-12-20T10:21:17.768Z,7.23
2017-12-20T10:23:45.226Z,7.13
2017-12-20T10:26:12.660Z,7.63
2017-12-20T10:28:40.097Z,7.07
2017-12-20T10:31:08.311Z,6.90
2017-12-20T10:33:35.743Z,5.00
2017-12-20T10:36:03.183Z,5.17
2017-12-20T10:38:31.382Z,8.30
2017-12-20T10:40:58.871Z,5.47
2017-12-20T10:43:26.299Z,6.27
2017-12-20T10:45:53.735Z,5.67
2017-12-20T10:48:21.960Z,5.10
2017-12-20T10:50:49.396Z,5.43
2017-12-20T10:53:16.844Z,4.87
2017-12-20T10:55:44.283Z,5.20
2017-12-20T10:58:11.719Z,4.93
2017-12-20T11:00:39.925Z,4.67
2017-12-20T11:03:07.412Z,5.80
2017-12-20T11:05:34.843Z,5.60
2017-12-20T11:08:02.274Z,4.70
2017-12-20T11:10:30.495Z,4.70
2017-12-20T11:12:58.702Z,5.43
2017-12-20T11:15:26.152Z,5.30
2017-12-20T11:17:53.584Z,6.53
2017-12-20T11:20:21.026Z,5.77
2017-12-20T11:22:48.476Z,5.97
2017-12-20T11:25:15.939Z,7.33
2017-12-20T11:27:43.370Z,7.30
2017-12-20T11:30:10.808Z,4.47
2017-12-20T11:32:39.015Z,5.23
2017-12-20T11:35:06.455Z,5.90
2017-12-20T11:37:33.902Z,4.63
2017-12-20T11:40:02.104Z,6.83
2017-12-20T11:42:29.546Z,6.43
2017-12-20T11:44:56.978Z,5.70
2017-12-20T11:47:25.193Z,5.93
2017-12-20T11:49:52.622Z,6.57
2017-12-20T11:52:20.871Z,6.20
2017-12-20T11:54:48.299Z,6.47
2017-12-20T11:57:15.734Z,7.47
2017-12-20T11:59:43.174Z,6.40
2017-12-20T12:02:10.616Z,4.70
2017-12-20T12:04:38.824Z,6.13
2017-12-20T12:07:06.263Z,4.63
2017-12-20T12:09:33.706Z,4.20
2017-12-20T12:12:01.908Z,3.00
2017-12-20T12:14:29.355Z,2.70
2017-12-20T12:16:56.790Z,3.27
2017-12-20T12:19:25.000Z,3.90
2017-12-20T12:21:52.439Z,4.20
2017-12-20T12:24:19.885Z,3.37
2017-12-20T12:26:47.322Z,6.37
2017-12-20T12:29:15.551Z,7.50
2017-12-20T12:31:42.987Z,5.50
2017-12-20T12:34:10.431Z,6.03
2017-12-20T12:36:38.648Z,5.43
2017-12-20T12:39:06.083Z,4.90
2017-12-20T12:41:33.531Z,3.70
2017-12-20T12:44:00.997Z,4.30
2017-12-20T12:46:28.410Z,4.73
2017-12-20T12:48:56.603Z,3.50
2017-12-20T12:51:24.047Z,4.73
2017-12-20T12:53:52.247Z,4.57
2017-12-20T12:56:19.731Z,2.83
2017-12-20T12:58:47.167Z,3.00
2017-12-20T13:01:14.601Z,2.97
2017-12-20T13:03:42.808Z,3.00
2017-12-20T13:06:10.248Z,2.47
2017-12-20T13:08:37.687Z,2.40
2017-12-20T13:11:05.127Z,2.90
2017-12-20T13:13:33.338Z,3.07
2017-12-20T13:16:00.767Z,2.23
2017-12-20T13:18:28.971Z,2.33
2017-12-20T13:20:56.411Z,1.90
2017-12-20T13:23:23.851Z,2.47
2017-12-20T13:25:52.065Z,1.73
2017-12-20T13:28:19.509Z,2.40
2017-12-20T13:30:46.943Z,2.67
2017-12-20T13:33:15.187Z,3.20
2017-12-20T13:35:42.627Z,2.83
2017-12-20T13:38:10.059Z,2.63
2017-12-20T13:40:37.507Z,3.20
2017-12-20T13:43:04.943Z,2.87
2017-12-20T13:45:33.158Z,3.17
2017-12-20T13:48:00.591Z,2.90
2017-12-20T13:50:28.036Z,3.57
2017-12-20T13:52:55.472Z,3.30
2017-12-20T13:55:23.688Z,3.20
2017-12-20T13:57:51.123Z,3.60
2017-12-20T14:00:18.562Z,2.77
2017-12-20T14:02:46.768Z,3.30
2017-12-20T14:05:14.252Z,3.40
2017-12-20T14:07:41.685Z,3.37
2017-12-20T14:10:09.121Z,3.77
2017-12-20T14:12:36.559Z,3.80
2017-12-20T14:15:04.764Z,3.47
2017-12-20T14:17:32.208Z,3.03
2017-12-20T14:19:59.645Z,2.80
2017-12-20T14:22:27.852Z,2.93
2017-12-20T14:24:55.286Z,4.03
2017-12-20T14:27:23.503Z,3.63
2017-12-20T14:29:50.942Z,4.07
2017-12-20T14:32:18.420Z,3.67
2017-12-20T14:34:45.856Z,5.00
2017-12-20T14:37:13.300Z,5.87
2017-12-20T14:39:40.752Z,5.37
2017-12-20T14:42:08.216Z,5.27
2017-12-20T14:44:35.651Z,5.00
2017-12-20T14:47:03.856Z,5.20
2017-12-20T14:49:31.334Z,6.20
2017-12-20T14:51:58.769Z,6.07
2017-12-20T14:54:26.207Z,6.17
2017-12-20T14:56:53.648Z,5.87
2017-12-20T14:59:21.865Z,6.93
2017-12-20T15:01:49.307Z,7.00
2017-12-20T15:04:16.744Z,6.27
2017-12-20T15:06:44.956Z,5.63
2017-12-20T15:09:12.396Z,8.53
2017-12-20T15:11:39.837Z,7.20
2017-12-20T15:14:07.278Z,11.63
2017-12-20T15:16:35.487Z,10.50
2017-12-20T15:19:02.919Z,9.87
2017-12-20T15:21:30.366Z,8.47
2017-12-20T15:23:58.569Z,8.00
2017-12-20T15:26:26.043Z,9.23
2017-12-20T15:28:53.487Z,12.50
2017-12-20T15:31:20.940Z,13.80
2017-12-20T15:33:48.389Z,10.37
2017-12-20T15:36:15.835Z,9.27
2017-12-20T15:38:44.048Z,11.43
2017-12-20T15:41:11.484Z,12.03
2017-12-20T15:43:38.935Z,10.00
2017-12-20T15:46:06.362Z,8.37
2017-12-20T15:48:34.603Z,9.50
2017-12-20T15:51:02.035Z,8.00
2017-12-20T15:53:29.476Z,9.90
2017-12-20T15:55:56.918Z,8.83
2017-12-20T15:58:24.354Z,9.23
2017-12-20T16:00:51.798Z,9.20
2017-12-20T16:03:19.236Z,10.57
2017-12-20T16:05:46.727Z,8.60
2017-12-20T16:08:14.931Z,9.37
2017-12-20T16:10:42.365Z,9.60
2017-12-20T16:13:10.570Z,11.80
2017-12-20T16:15:38.015Z,10.57
2017-12-20T16:18:05.455Z,10.00
2017-12-20T16:20:33.658Z,10.40
2017-12-20T16:23:01.100Z,9.97
2017-12-20T16:25:28.554Z,10.90
2017-12-20T16:27:56.759Z,11.00
2017-12-20T16:30:24.195Z,10.70
2017-12-20T16:32:51.675Z,10.93
2017-12-20T16:35:19.109Z,9.67
2017-12-20T16:37:46.554Z,6.53
2017-12-20T16:40:14.000Z,5.23
2017-12-20T16:42:42.201Z,6.50
2017-12-20T16:45:09.643Z,9.63
2017-12-20T16:47:37.086Z,19.50
2017-12-20T16:50:05.294Z,13.53
2017-12-20T16:52:32.740Z,9.90
2017-12-20T16:55:00.193Z,12.30
2017-12-20T16:57:27.630Z,11.57
2017-12-20T16:59:55.839Z,9.13
2017-12-20T17:02:23.275Z,9.20
2017-12-20T17:04:50.707Z,9.13
2017-12-20T17:07:18.923Z,9.50
2017-12-20T17:09:46.406Z,10.57
2017-12-20T17:12:13.834Z,8.73
2017-12-20T17:14:41.269Z,8.47
2017-12-20T17:17:09.479Z,7.30
2017-12-20T17:19:36.917Z,7.67
2017-12-20T17:22:04.376Z,7.67
2017-12-20T17:24:31.810Z,7.00
2017-12-20T17:27:00.017Z,6.60
2017-12-20T17:29:27.460Z,6.93
2017-12-20T17:31:54.907Z,7.40
2017-12-20T17:34:22.347Z,6.67
2017-12-20T17:36:50.551Z,10.23
2017-12-20T17:39:18.000Z,7.77
2017-12-20T17:41:45.435Z,6.80
2017-12-20T17:44:13.654Z,7.50
2017-12-20T17:46:41.079Z,6.30
2017-12-20T17:49:08.525Z,7.77
2017-12-20T17:51:36.719Z,7.20
2017-12-20T17:54:04.237Z,7.83
2017-12-20T17:56:31.663Z,8.53
2017-12-20T17:58:59.098Z,8.97
2017-12-20T18:01:26.539Z,9.20
2017-12-20T18:03:53.980Z,11.27
2017-12-20T18:06:21.479Z,10.40
2017-12-20T18:08:48.899Z,9.97
2017-12-20T18:11:16.349Z,9.70
2017-12-20T18:13:44.554Z,11.67
2017-12-20T18:16:12.009Z,10.87
2017-12-20T18:18:39.490Z,10.10
2017-12-20T18:21:06.963Z,9.10
2017-12-20T18:23:34.404Z,9.10
2017-12-20T18:26:01.839Z,10.20
2017-12-20T18:28:29.287Z,7.90
2017-12-20T18:30:56.723Z,9.10
2017-12-20T18:33:24.762Z,8.10
2017-12-20T18:35:52.191Z,7.90
2017-12-20T18:38:19.638Z,8.40
2017-12-20T18:40:47.080Z,7.57
2017-12-20T18:43:14.568Z,8.63
2017-12-20T18:45:42.015Z,7.90
2017-12-20T18:48:09.506Z,7.70
2017-12-20T18:50:36.935Z,8.30
2017-12-20T18:53:04.375Z,10.30
2017-12-20T18:55:31.866Z,7.40
2017-12-20T18:57:59.352Z,6.80
2017-12-20T19:00:27.622Z,9.70
2017-12-20T19:02:55.816Z,9.60
2017-12-20T19:05:23.255Z,8.60
2017-12-20T19:07:51.467Z,9.13
2017-12-20T19:10:18.908Z,8.80
2017-12-20T19:12:46.361Z,9.27
2017-12-20T19:15:13.837Z,9.23
2017-12-20T19:17:41.328Z,10.53
2017-12-20T19:20:08.796Z,12.20
2017-12-20T19:22:36.264Z,11.47
2017-12-20T19:25:04.525Z,9.90
2017-12-20T19:27:31.971Z,9.23
2017-12-20T19:29:59.411Z,10.33
2017-12-20T19:32:26.904Z,9.40
2017-12-20T19:34:55.186Z,8.50
2017-12-20T19:37:22.722Z,9.83
2017-12-20T19:39:50.276Z,9.17
2017-12-20T19:42:17.772Z,21.57
2017-12-20T19:44:45.253Z,26.50
2017-12-20T19:47:12.734Z,16.60
2017-12-20T19:49:40.265Z,13.77
2017-12-20T19:52:07.747Z,9.43
2017-12-20T19:54:35.392Z,10.47
2017-12-20T19:57:02.881Z,10.10
2017-12-20T19:59:30.358Z,12.20
2017-12-20T20:01:57.855Z,15.33
2017-12-20T20:04:25.355Z,13.27
2017-12-20T20:06:52.839Z,14.23
2017-12-20T20:09:20.319Z,11.50
2017-12-20T20:11:47.802Z,9.57
2017-12-20T20:14:15.222Z,10.00
2017-12-20T20:16:42.763Z,10.23
2017-12-20T20:19:10.245Z,10.70
2017-12-20T20:21:37.730Z,9.70
2017-12-20T20:24:05.210Z,9.03
2017-12-20T20:26:32.639Z,11.13
2017-12-20T20:29:00.087Z,9.57
2017-12-20T20:31:27.560Z,8.63
2017-12-20T20:33:55.049Z,9.30
2017-12-20T20:36:22.546Z,10.20
2017-12-20T20:38:50.063Z,9.87
2017-12-20T20:41:17.544Z,10.50
2017-12-20T20:43:45.776Z,10.33
2017-12-20T20:46:14.035Z,10.13
2017-12-20T20:48:41.467Z,11.87
2017-12-20T20:51:08.964Z,8.80
2017-12-20T20:53:36.446Z,10.20
2017-12-20T20:56:03.940Z,9.97
2017-12-20T20:58:32.232Z,9.93
2017-12-20T21:00:59.759Z,9.27
2017-12-20T21:03:28.002Z,9.87
2017-12-20T21:05:55.479Z,9.93
2017-12-20T21:08:22.954Z,9.17
2017-12-20T21:10:51.198Z,9.13
2017-12-20T21:13:18.692Z,11.30
2017-12-20T21:15:46.944Z,13.00
2017-12-20T21:18:14.433Z,10.23
2017-12-20T21:20:41.913Z,10.03
2017-12-20T21:23:09.445Z,11.77
2017-12-20T21:25:37.691Z,10.97
2017-12-20T21:28:05.171Z,10.53
2017-12-20T21:30:33.419Z,10.90
2017-12-20T21:33:00.859Z,9.87
2017-12-20T21:35:28.360Z,10.37
2017-12-20T21:37:56.605Z,9.20
2017-12-20T21:40:24.103Z,10.03
2017-12-20T21:42:51.571Z,8.53
2017-12-20T21:45:19.050Z,7.40
2017-12-20T21:47:47.279Z,7.50
2017-12-20T21:50:15.522Z,7.70
2017-12-20T21:52:42.999Z,8.10
2017-12-20T21:55:11.254Z,8.03
2017-12-20T21:57:38.675Z,8.30
2017-12-20T22:00:06.284Z,9.57
2017-12-20T22:02:34.488Z,8.57
2017-12-20T22:05:02.904Z,7.63
2017-12-20T22:07:30.394Z,7.00
2017-12-20T22:09:58.104Z,8.30
2017-12-20T22:12:25.609Z,8.73
2017-12-20T22:14:53.087Z,8.00
2017-12-20T22:17:21.325Z,6.83
2017-12-20T22:19:48.743Z,7.73
2017-12-20T22:22:16.188Z,6.70
2017-12-20T22:24:43.683Z,8.20
2017-12-20T22:27:11.167Z,6.90
2017-12-20T22:29:38.591Z,8.10
2017-12-20T22:32:06.086Z,6.90
2017-12-20T22:34:33.566Z,8.10
2017-12-20T22:37:01.800Z,6.30
2017-12-20T22:39:29.223Z,7.57
2017-12-20T22:41:56.716Z,7.43
2017-12-20T22:44:24.189Z,7.57
2017-12-20T22:46:51.704Z,7.17
2017-12-20T22:49:19.171Z,7.60
2017-12-20T22:51:46.631Z,6.10
2017-12-20T22:54:14.114Z,8.33
2017-12-20T22:56:41.539Z,6.87
2017-12-20T22:59:09.022Z,7.37
2017-12-20T23:01:36.443Z,7.87
2017-12-20T23:04:03.921Z,6.90
2017-12-20T23:06:31.351Z,7.77
2017-12-20T23:08:58.847Z,7.47
2017-12-20T23:11:26.275Z,6.47
2017-12-20T23:13:53.782Z,6.70
2017-12-20T23:16:21.971Z,7.70
2017-12-20T23:18:49.445Z,7.97
2017-12-20T23:21:16.922Z,6.77
2017-12-20T23:23:44.351Z,7.40
2017-12-20T23:26:11.792Z,6.80
2017-12-20T23:28:39.269Z,6.57
2017-12-20T23:31:06.690Z,6.87
2017-12-20T23:33:34.129Z,6.40
2017-12-20T23:36:01.567Z,6.93
2017-12-20T23:38:29.007Z,7.63
2017-12-20T23:40:57.252Z,7.17
2017-12-20T23:43:24.729Z,7.50
2017-12-20T23:45:52.182Z,6.63
2017-12-20T23:48:19.619Z,8.37
2017-12-20T23:50:47.047Z,8.60
2017-12-20T23:53:15.260Z,8.57
2017-12-20T23:55:42.686Z,6.93
2017-12-20T23:58:10.904Z,7.33
